sensor_id;sensor_type;location;lat;lon;timestamp;temperature;humidity
1800;DHT22;919;48.274;12.292;2023-04-21T00:02:20;7.70;99.90
1800;DHT22;919;48.274;12.292;2023-04-21T00:04:47;7.70;99.90
1800;DHT22;919;48.274;12.292;2023-04-21T00:07:14;7.70;99.90
1800;DHT22;919;48.274;12.292;2023-04-21T00:09:41;7.70;99.90
1800;DHT22;919;48.274;12.292;2023-04-21T00:12:07;7.70;99.90
1800;DHT22;919;48.274;12.292;2023-04-21T00:14:36;7.70;99.90
1800;DHT22;919;48.274;12.292;2023-04-21T00:17:04;7.70;99.90
1800;DHT22;919;48.274;12.292;2023-04-21T00:19:31;7.70;99.90
1800;DHT22;919;48.274;12.292;2023-04-21T00:21:58;7.70;99.90
1800;DHT22;919;48.274;12.292;2023-04-21T00:24:25;7.70;99.90
1800;DHT22;919;48.274;12.292;2023-04-21T00:26:52;7.70;99.90
1800;DHT22;919;48.274;12.292;2023-04-21T00:29:19;7.70;99.90
1800;DHT22;919;48.274;12.292;2023-04-21T00:31:47;7.70;99.90
1800;DHT22;919;48.274;12.292;2023-04-21T00:34:14;7.70;99.90
1800;DHT22;919;48.274;12.292;2023-04-21T00:36:40;7.70;99.90
1800;DHT22;919;48.274;12.292;2023-04-21T00:39:07;7.70;99.90
1800;DHT22;919;48.274;12.292;2023-04-21T00:41:35;7.70;99.90
1800;DHT22;919;48.274;12.292;2023-04-21T00:44:05;7.60;99.90
1800;DHT22;919;48.274;12.292;2023-04-21T00:46:32;7.50;99.90
1800;DHT22;919;48.274;12.292;2023-04-21T00:49:03;7.50;99.90
1800;DHT22;919;48.274;12.292;2023-04-21T00:51:32;7.40;99.90
1800;DHT22;919;48.274;12.292;2023-04-21T00:53:59;7.40;99.90
1800;DHT22;919;48.274;12.292;2023-04-21T00:56:28;7.30;99.90
1800;DHT22;919;48.274;12.292;2023-04-21T00:58:57;7.20;99.90
1800;DHT22;919;48.274;12.292;2023-04-21T01:01:24;7.20;99.90
1800;DHT22;919;48.274;12.292;2023-04-21T01:03:51;7.10;99.90
1800;DHT22;919;48.274;12.292;2023-04-21T01:06:20;7.00;99.90
1800;DHT22;919;48.274;12.292;2023-04-21T01:08:47;7.00;99.90
1800;DHT22;919;48.274;12.292;2023-04-21T01:11:14;6.90;99.90
1800;DHT22;919;48.274;12.292;2023-04-21T01:13:41;6.90;99.90
1800;DHT22;919;48.274;12.292;2023-04-21T01:16:07;6.80;99.90
1800;DHT22;919;48.274;12.292;2023-04-21T01:18:34;6.80;99.90
1800;DHT22;919;48.274;12.292;2023-04-21T01:21:02;6.70;99.90
1800;DHT22;919;48.274;12.292;2023-04-21T01:23:31;6.70;99.90
1800;DHT22;919;48.274;12.292;2023-04-21T01:25:58;6.60;99.90
1800;DHT22;919;48.274;12.292;2023-04-21T01:28:25;6.60;99.90
1800;DHT22;919;48.274;12.292;2023-04-21T01:30:52;6.50;99.90
1800;DHT22;919;48.274;12.292;2023-04-21T01:33:20;6.50;99.90
1800;DHT22;919;48.274;12.292;2023-04-21T01:35:47;6.40;99.90
1800;DHT22;919;48.274;12.292;2023-04-21T01:38:14;6.20;99.90
1800;DHT22;919;48.274;12.292;2023-04-21T01:40:47;6.20;99.90
1800;DHT22;919;48.274;12.292;2023-04-21T01:43:16;6.20;99.90
1800;DHT22;919;48.274;12.292;2023-04-21T01:45:43;6.20;99.90
1800;DHT22;919;48.274;12.292;2023-04-21T01:48:10;6.10;99.90
1800;DHT22;919;48.274;12.292;2023-04-21T01:50:37;6.10;99.90
1800;DHT22;919;48.274;12.292;2023-04-21T01:53:03;5.90;99.90
1800;DHT22;919;48.274;12.292;2023-04-21T01:55:30;5.80;99.90
1800;DHT22;919;48.274;12.292;2023-04-21T01:57:58;5.60;99.90
1800;DHT22;919;48.274;12.292;2023-04-21T02:00:25;5.50;99.90
1800;DHT22;919;48.274;12.292;2023-04-21T02:02:52;5.50;99.90
1800;DHT22;919;48.274;12.292;2023-04-21T02:05:19;5.50;99.90
1800;DHT22;919;48.274;12.292;2023-04-21T02:07:45;5.60;99.90
1800;DHT22;919;48.274;12.292;2023-04-21T02:10:12;5.50;99.90
1800;DHT22;919;48.274;12.292;2023-04-21T02:12:39;5.30;99.90
1800;DHT22;919;48.274;12.292;2023-04-21T02:15:08;5.20;99.90
1800;DHT22;919;48.274;12.292;2023-04-21T02:17:35;5.30;99.90
1800;DHT22;919;48.274;12.292;2023-04-21T02:20:02;5.30;99.90
1800;DHT22;919;48.274;12.292;2023-04-21T02:22:29;5.30;99.90
1800;DHT22;919;48.274;12.292;2023-04-21T02:24:56;5.30;99.90
1800;DHT22;919;48.274;12.292;2023-04-21T02:27:23;5.30;99.90
1800;DHT22;919;48.274;12.292;2023-04-21T02:29:50;5.30;99.90
1800;DHT22;919;48.274;12.292;2023-04-21T02:32:18;5.30;99.90
1800;DHT22;919;48.274;12.292;2023-04-21T02:34:44;5.30;99.90
1800;DHT22;919;48.274;12.292;2023-04-21T02:37:11;5.30;99.90
1800;DHT22;919;48.274;12.292;2023-04-21T02:39:38;5.20;99.90
1800;DHT22;919;48.274;12.292;2023-04-21T02:42:04;5.10;99.90
1800;DHT22;919;48.274;12.292;2023-04-21T02:44:31;5.10;99.90
1800;DHT22;919;48.274;12.292;2023-04-21T02:46:58;5.00;99.90
1800;DHT22;919;48.274;12.292;2023-04-21T02:49:26;4.90;99.90
1800;DHT22;919;48.274;12.292;2023-04-21T02:51:52;4.80;99.90
1800;DHT22;919;48.274;12.292;2023-04-21T02:54:20;4.80;99.90
1800;DHT22;919;48.274;12.292;2023-04-21T02:56:46;4.80;99.90
1800;DHT22;919;48.274;12.292;2023-04-21T02:59:13;4.80;99.90
1800;DHT22;919;48.274;12.292;2023-04-21T03:01:40;4.80;99.90
1800;DHT22;919;48.274;12.292;2023-04-21T03:04:07;4.90;99.90
1800;DHT22;919;48.274;12.292;2023-04-21T03:06:35;4.90;99.90
1800;DHT22;919;48.274;12.292;2023-04-21T03:09:02;4.80;99.90
1800;DHT22;919;48.274;12.292;2023-04-21T03:11:29;4.80;99.90
1800;DHT22;919;48.274;12.292;2023-04-21T03:13:55;4.80;99.90
1800;DHT22;919;48.274;12.292;2023-04-21T03:16:22;4.70;99.90
1800;DHT22;919;48.274;12.292;2023-04-21T03:18:49;4.60;99.90
1800;DHT22;919;48.274;12.292;2023-04-21T03:21:15;4.60;99.90
1800;DHT22;919;48.274;12.292;2023-04-21T03:23:43;4.60;99.90
1800;DHT22;919;48.274;12.292;2023-04-21T03:26:10;4.60;99.90
1800;DHT22;919;48.274;12.292;2023-04-21T03:28:37;4.60;99.90
1800;DHT22;919;48.274;12.292;2023-04-21T03:31:04;4.60;99.90
1800;DHT22;919;48.274;12.292;2023-04-21T03:33:30;4.60;99.90
1800;DHT22;919;48.274;12.292;2023-04-21T03:35:58;4.60;99.90
1800;DHT22;919;48.274;12.292;2023-04-21T03:38:24;4.60;99.90
1800;DHT22;919;48.274;12.292;2023-04-21T03:40:52;4.60;99.90
1800;DHT22;919;48.274;12.292;2023-04-21T03:43:19;4.60;99.90
1800;DHT22;919;48.274;12.292;2023-04-21T03:45:46;4.50;99.90
1800;DHT22;919;48.274;12.292;2023-04-21T03:48:12;4.50;99.90
1800;DHT22;919;48.274;12.292;2023-04-21T03:50:39;4.60;99.90
1800;DHT22;919;48.274;12.292;2023-04-21T03:53:05;4.60;99.90
1800;DHT22;919;48.274;12.292;2023-04-21T03:55:32;4.60;99.90
1800;DHT22;919;48.274;12.292;2023-04-21T03:58:00;4.50;99.90
1800;DHT22;919;48.274;12.292;2023-04-21T04:00:27;4.50;99.90
1800;DHT22;919;48.274;12.292;2023-04-21T04:02:53;4.50;99.90
1800;DHT22;919;48.274;12.292;2023-04-21T04:05:20;4.60;99.90
1800;DHT22;919;48.274;12.292;2023-04-21T04:07:47;4.60;99.90
1800;DHT22;919;48.274;12.292;2023-04-21T04:10:13;4.50;99.90
1800;DHT22;919;48.274;12.292;2023-04-21T04:12:40;4.40;99.90
1800;DHT22;919;48.274;12.292;2023-04-21T04:15:08;4.30;99.90
1800;DHT22;919;48.274;12.292;2023-04-21T04:17:35;4.30;99.90
1800;DHT22;919;48.274;12.292;2023-04-21T04:20:02;4.30;99.90
1800;DHT22;919;48.274;12.292;2023-04-21T04:22:30;4.30;99.90
1800;DHT22;919;48.274;12.292;2023-04-21T04:24:58;4.20;99.90
1800;DHT22;919;48.274;12.292;2023-04-21T04:27:25;4.30;99.90
1800;DHT22;919;48.274;12.292;2023-04-21T04:29:52;4.30;99.90
1800;DHT22;919;48.274;12.292;2023-04-21T04:32:20;4.40;99.90
1800;DHT22;919;48.274;12.292;2023-04-21T04:34:47;4.40;99.90
1800;DHT22;919;48.274;12.292;2023-04-21T04:37:13;4.50;99.90
1800;DHT22;919;48.274;12.292;2023-04-21T04:39:40;4.60;99.90
1800;DHT22;919;48.274;12.292;2023-04-21T04:42:07;4.70;99.90
1800;DHT22;919;48.274;12.292;2023-04-21T04:44:34;4.70;99.90
1800;DHT22;919;48.274;12.292;2023-04-21T04:47:01;4.60;99.90
1800;DHT22;919;48.274;12.292;2023-04-21T04:49:29;4.60;99.90
1800;DHT22;919;48.274;12.292;2023-04-21T04:51:56;4.50;99.90
1800;DHT22;919;48.274;12.292;2023-04-21T04:54:24;4.50;99.90
1800;DHT22;919;48.274;12.292;2023-04-21T04:56:50;4.50;99.90
1800;DHT22;919;48.274;12.292;2023-04-21T04:59:17;4.50;99.90
1800;DHT22;919;48.274;12.292;2023-04-21T05:01:44;4.60;99.90
1800;DHT22;919;48.274;12.292;2023-04-21T05:04:11;4.80;99.90
1800;DHT22;919;48.274;12.292;2023-04-21T05:06:42;5.00;99.90
1800;DHT22;919;48.274;12.292;2023-04-21T05:09:08;5.20;99.90
1800;DHT22;919;48.274;12.292;2023-04-21T05:11:36;5.30;99.90
1800;DHT22;919;48.274;12.292;2023-04-21T05:14:02;5.50;99.90
1800;DHT22;919;48.274;12.292;2023-04-21T05:16:29;5.60;99.90
1800;DHT22;919;48.274;12.292;2023-04-21T05:19:00;5.80;99.90
1800;DHT22;919;48.274;12.292;2023-04-21T05:21:27;6.00;99.90
1800;DHT22;919;48.274;12.292;2023-04-21T05:23:57;6.20;99.90
1800;DHT22;919;48.274;12.292;2023-04-21T05:26:24;6.30;99.90
1800;DHT22;919;48.274;12.292;2023-04-21T05:28:51;6.40;99.90
1800;DHT22;919;48.274;12.292;2023-04-21T05:31:18;6.50;99.90
1800;DHT22;919;48.274;12.292;2023-04-21T05:33:45;6.50;99.90
1800;DHT22;919;48.274;12.292;2023-04-21T05:36:11;6.60;99.90
1800;DHT22;919;48.274;12.292;2023-04-21T05:38:38;6.70;99.90
1800;DHT22;919;48.274;12.292;2023-04-21T05:41:07;6.80;99.90
1800;DHT22;919;48.274;12.292;2023-04-21T05:43:33;6.90;99.90
1800;DHT22;919;48.274;12.292;2023-04-21T05:46:00;6.90;99.90
1800;DHT22;919;48.274;12.292;2023-04-21T05:48:27;7.00;99.90
1800;DHT22;919;48.274;12.292;2023-04-21T05:50:54;7.00;99.90
1800;DHT22;919;48.274;12.292;2023-04-21T05:53:21;7.00;99.90
1800;DHT22;919;48.274;12.292;2023-04-21T05:55:48;7.00;99.90
1800;DHT22;919;48.274;12.292;2023-04-21T05:58:17;7.10;99.90
1800;DHT22;919;48.274;12.292;2023-04-21T06:00:43;7.00;99.90
1800;DHT22;919;48.274;12.292;2023-04-21T06:03:11;7.00;99.90
1800;DHT22;919;48.274;12.292;2023-04-21T06:05:38;7.00;99.90
1800;DHT22;919;48.274;12.292;2023-04-21T06:08:05;7.10;99.90
1800;DHT22;919;48.274;12.292;2023-04-21T06:10:31;7.20;99.90
1800;DHT22;919;48.274;12.292;2023-04-21T06:12:58;7.20;99.90
1800;DHT22;919;48.274;12.292;2023-04-21T06:15:26;7.20;99.90
1800;DHT22;919;48.274;12.292;2023-04-21T06:17:53;7.30;99.90
1800;DHT22;919;48.274;12.292;2023-04-21T06:20:20;7.40;99.90
1800;DHT22;919;48.274;12.292;2023-04-21T06:22:47;7.50;99.90
1800;DHT22;919;48.274;12.292;2023-04-21T06:25:13;7.50;99.90
1800;DHT22;919;48.274;12.292;2023-04-21T06:27:40;7.50;99.90
1800;DHT22;919;48.274;12.292;2023-04-21T06:30:07;7.60;99.90
1800;DHT22;919;48.274;12.292;2023-04-21T06:32:36;7.60;99.90
1800;DHT22;919;48.274;12.292;2023-04-21T06:35:03;7.70;99.90
1800;DHT22;919;48.274;12.292;2023-04-21T06:37:30;7.70;99.90
1800;DHT22;919;48.274;12.292;2023-04-21T06:39:56;7.70;99.90
1800;DHT22;919;48.274;12.292;2023-04-21T06:42:23;7.80;99.90
1800;DHT22;919;48.274;12.292;2023-04-21T06:44:50;7.90;99.90
1800;DHT22;919;48.274;12.292;2023-04-21T06:47:16;8.10;99.90
1800;DHT22;919;48.274;12.292;2023-04-21T06:49:45;8.30;99.90
1800;DHT22;919;48.274;12.292;2023-04-21T06:52:11;8.50;99.90
1800;DHT22;919;48.274;12.292;2023-04-21T06:54:38;8.70;99.90
1800;DHT22;919;48.274;12.292;2023-04-21T06:57:05;9.00;99.90
1800;DHT22;919;48.274;12.292;2023-04-21T06:59:32;9.10;99.90
1800;DHT22;919;48.274;12.292;2023-04-21T07:01:59;9.20;99.90
1800;DHT22;919;48.274;12.292;2023-04-21T07:04:26;9.30;99.90
1800;DHT22;919;48.274;12.292;2023-04-21T07:06:57;9.30;99.90
1800;DHT22;919;48.274;12.292;2023-04-21T07:09:24;9.30;99.90
1800;DHT22;919;48.274;12.292;2023-04-21T07:11:52;9.50;99.90
1800;DHT22;919;48.274;12.292;2023-04-21T07:14:19;9.50;99.90
1800;DHT22;919;48.274;12.292;2023-04-21T07:16:46;9.50;99.90
1800;DHT22;919;48.274;12.292;2023-04-21T07:19:12;9.50;99.90
1800;DHT22;919;48.274;12.292;2023-04-21T07:21:39;9.60;99.90
1800;DHT22;919;48.274;12.292;2023-04-21T07:24:08;9.80;99.90
1800;DHT22;919;48.274;12.292;2023-04-21T07:26:34;9.90;99.90
1800;DHT22;919;48.274;12.292;2023-04-21T07:29:01;9.90;99.90
1800;DHT22;919;48.274;12.292;2023-04-21T07:31:28;9.90;99.90
1800;DHT22;919;48.274;12.292;2023-04-21T07:33:55;9.90;99.90
1800;DHT22;919;48.274;12.292;2023-04-21T07:36:21;9.80;99.90
1800;DHT22;919;48.274;12.292;2023-04-21T07:38:49;9.80;99.90
1800;DHT22;919;48.274;12.292;2023-04-21T07:41:17;9.80;99.90
1800;DHT22;919;48.274;12.292;2023-04-21T07:43:44;9.80;99.90
1800;DHT22;919;48.274;12.292;2023-04-21T07:46:10;9.80;99.90
1800;DHT22;919;48.274;12.292;2023-04-21T07:48:38;9.80;99.90
1800;DHT22;919;48.274;12.292;2023-04-21T07:51:05;9.70;99.90
1800;DHT22;919;48.274;12.292;2023-04-21T07:53:32;9.50;99.90
1800;DHT22;919;48.274;12.292;2023-04-21T07:55:59;9.50;99.90
1800;DHT22;919;48.274;12.292;2023-04-21T07:58:27;9.40;99.90
1800;DHT22;919;48.274;12.292;2023-04-21T08:00:53;9.40;99.90
1800;DHT22;919;48.274;12.292;2023-04-21T08:03:20;9.40;99.90
1800;DHT22;919;48.274;12.292;2023-04-21T08:05:47;9.40;99.90
1800;DHT22;919;48.274;12.292;2023-04-21T08:08:14;9.50;99.90
1800;DHT22;919;48.274;12.292;2023-04-21T08:10:44;9.70;99.90
1800;DHT22;919;48.274;12.292;2023-04-21T08:13:11;9.80;99.90
1800;DHT22;919;48.274;12.292;2023-04-21T08:15:39;9.90;99.90
1800;DHT22;919;48.274;12.292;2023-04-21T08:18:06;9.90;99.90
1800;DHT22;919;48.274;12.292;2023-04-21T08:20:33;9.90;99.90
1800;DHT22;919;48.274;12.292;2023-04-21T08:23:00;10.00;99.90
1800;DHT22;919;48.274;12.292;2023-04-21T08:25:27;10.10;99.90
1800;DHT22;919;48.274;12.292;2023-04-21T08:27:53;10.10;99.90
1800;DHT22;919;48.274;12.292;2023-04-21T08:30:20;10.10;99.90
1800;DHT22;919;48.274;12.292;2023-04-21T08:32:48;10.20;99.90
1800;DHT22;919;48.274;12.292;2023-04-21T08:35:15;10.30;99.90
1800;DHT22;919;48.274;12.292;2023-04-21T08:37:41;10.40;99.90
1800;DHT22;919;48.274;12.292;2023-04-21T08:40:10;10.50;99.90
1800;DHT22;919;48.274;12.292;2023-04-21T08:42:37;10.80;99.90
1800;DHT22;919;48.274;12.292;2023-04-21T08:45:05;11.00;99.90
1800;DHT22;919;48.274;12.292;2023-04-21T08:47:32;10.90;99.90
1800;DHT22;919;48.274;12.292;2023-04-21T08:50:00;11.00;99.90
1800;DHT22;919;48.274;12.292;2023-04-21T08:52:27;11.10;99.90
1800;DHT22;919;48.274;12.292;2023-04-21T08:54:54;11.30;99.90
1800;DHT22;919;48.274;12.292;2023-04-21T08:57:21;11.40;99.90
1800;DHT22;919;48.274;12.292;2023-04-21T08:59:48;11.30;99.90
1800;DHT22;919;48.274;12.292;2023-04-21T09:02:16;11.60;99.90
1800;DHT22;919;48.274;12.292;2023-04-21T09:04:44;11.60;99.90
1800;DHT22;919;48.274;12.292;2023-04-21T09:07:29;11.90;99.90
1800;DHT22;919;48.274;12.292;2023-04-21T09:09:56;12.20;99.90
1800;DHT22;919;48.274;12.292;2023-04-21T09:12:24;12.60;99.90
1800;DHT22;919;48.274;12.292;2023-04-21T09:14:52;12.90;99.90
1800;DHT22;919;48.274;12.292;2023-04-21T09:17:21;13.30;99.90
1800;DHT22;919;48.274;12.292;2023-04-21T09:19:52;13.70;99.90
1800;DHT22;919;48.274;12.292;2023-04-21T09:22:26;13.80;99.90
1800;DHT22;919;48.274;12.292;2023-04-21T09:24:56;13.90;99.90
1800;DHT22;919;48.274;12.292;2023-04-21T09:27:24;13.90;99.90
1800;DHT22;919;48.274;12.292;2023-04-21T09:29:51;13.90;99.90
1800;DHT22;919;48.274;12.292;2023-04-21T09:32:18;14.00;99.90
1800;DHT22;919;48.274;12.292;2023-04-21T09:34:45;14.20;99.90
1800;DHT22;919;48.274;12.292;2023-04-21T09:37:13;14.30;99.90
1800;DHT22;919;48.274;12.292;2023-04-21T09:39:45;14.30;99.90
1800;DHT22;919;48.274;12.292;2023-04-21T09:42:12;14.30;99.90
1800;DHT22;919;48.274;12.292;2023-04-21T09:44:39;14.40;99.90
1800;DHT22;919;48.274;12.292;2023-04-21T09:47:09;14.30;99.90
1800;DHT22;919;48.274;12.292;2023-04-21T09:49:36;14.10;99.90
1800;DHT22;919;48.274;12.292;2023-04-21T09:52:10;13.90;99.90
1800;DHT22;919;48.274;12.292;2023-04-21T09:54:42;13.90;99.90
1800;DHT22;919;48.274;12.292;2023-04-21T09:57:12;14.20;99.90
1800;DHT22;919;48.274;12.292;2023-04-21T09:59:44;14.50;99.90
1800;DHT22;919;48.274;12.292;2023-04-21T10:02:12;14.40;99.90
1800;DHT22;919;48.274;12.292;2023-04-21T10:04:40;14.40;99.90
1800;DHT22;919;48.274;12.292;2023-04-21T10:07:09;14.60;99.90
1800;DHT22;919;48.274;12.292;2023-04-21T10:09:39;14.70;99.90
1800;DHT22;919;48.274;12.292;2023-04-21T10:12:08;14.90;99.90
1800;DHT22;919;48.274;12.292;2023-04-21T10:14:36;15.20;99.90
1800;DHT22;919;48.274;12.292;2023-04-21T10:17:04;15.30;99.90
1800;DHT22;919;48.274;12.292;2023-04-21T10:19:31;15.30;99.90
1800;DHT22;919;48.274;12.292;2023-04-21T10:22:01;15.40;99.90
1800;DHT22;919;48.274;12.292;2023-04-21T10:24:28;15.50;99.90
1800;DHT22;919;48.274;12.292;2023-04-21T10:26:56;15.40;99.90
1800;DHT22;919;48.274;12.292;2023-04-21T10:29:32;15.70;99.90
1800;DHT22;919;48.274;12.292;2023-04-21T10:32:00;15.80;99.90
1800;DHT22;919;48.274;12.292;2023-04-21T10:34:34;16.00;99.90
1800;DHT22;919;48.274;12.292;2023-04-21T10:37:16;16.20;99.90
1800;DHT22;919;48.274;12.292;2023-04-21T10:39:56;16.30;99.90
1800;DHT22;919;48.274;12.292;2023-04-21T10:42:28;16.30;99.90
1800;DHT22;919;48.274;12.292;2023-04-21T10:45:11;16.50;99.90
1800;DHT22;919;48.274;12.292;2023-04-21T10:47:44;16.70;99.90
1800;DHT22;919;48.274;12.292;2023-04-21T10:50:18;16.90;99.90
1800;DHT22;919;48.274;12.292;2023-04-21T10:52:51;16.80;99.90
1800;DHT22;919;48.274;12.292;2023-04-21T10:55:19;16.50;99.90
1800;DHT22;919;48.274;12.292;2023-04-21T10:57:47;16.40;99.90
1800;DHT22;919;48.274;12.292;2023-04-21T11:00:16;16.50;99.90
1800;DHT22;919;48.274;12.292;2023-04-21T11:02:52;16.60;99.90
1800;DHT22;919;48.274;12.292;2023-04-21T11:05:19;16.60;99.90
1800;DHT22;919;48.274;12.292;2023-04-21T11:07:46;16.50;99.90
1800;DHT22;919;48.274;12.292;2023-04-21T11:10:12;16.40;99.90
1800;DHT22;919;48.274;12.292;2023-04-21T11:12:39;16.40;99.90
1800;DHT22;919;48.274;12.292;2023-04-21T11:15:08;16.40;99.90
1800;DHT22;919;48.274;12.292;2023-04-21T11:17:36;16.50;99.90
1800;DHT22;919;48.274;12.292;2023-04-21T11:20:06;16.40;99.90
1800;DHT22;919;48.274;12.292;2023-04-21T11:22:35;16.50;99.90
1800;DHT22;919;48.274;12.292;2023-04-21T11:25:03;16.40;99.90
1800;DHT22;919;48.274;12.292;2023-04-21T11:27:31;16.50;99.90
1800;DHT22;919;48.274;12.292;2023-04-21T11:29:58;16.50;99.90
1800;DHT22;919;48.274;12.292;2023-04-21T11:32:28;16.50;99.90
1800;DHT22;919;48.274;12.292;2023-04-21T11:34:55;16.60;99.90
1800;DHT22;919;48.274;12.292;2023-04-21T11:37:25;16.50;99.90
1800;DHT22;919;48.274;12.292;2023-04-21T11:39:58;16.40;99.90
1800;DHT22;919;48.274;12.292;2023-04-21T11:42:26;16.60;99.90
1800;DHT22;919;48.274;12.292;2023-04-21T11:44:54;16.70;99.90
1800;DHT22;919;48.274;12.292;2023-04-21T11:47:22;16.90;99.90
1800;DHT22;919;48.274;12.292;2023-04-21T11:49:51;17.10;99.90
1800;DHT22;919;48.274;12.292;2023-04-21T11:52:24;17.10;99.90
1800;DHT22;919;48.274;12.292;2023-04-21T11:54:57;17.20;99.90
1800;DHT22;919;48.274;12.292;2023-04-21T11:57:25;17.20;99.90
1800;DHT22;919;48.274;12.292;2023-04-21T11:59:51;17.20;99.90
1800;DHT22;919;48.274;12.292;2023-04-21T12:02:23;17.30;99.90
1800;DHT22;919;48.274;12.292;2023-04-21T12:04:58;17.30;99.90
1800;DHT22;919;48.274;12.292;2023-04-21T12:07:27;17.30;99.90
1800;DHT22;919;48.274;12.292;2023-04-21T12:09:54;17.50;99.90
1800;DHT22;919;48.274;12.292;2023-04-21T12:12:21;17.50;99.90
1800;DHT22;919;48.274;12.292;2023-04-21T12:14:49;17.60;99.90
1800;DHT22;919;48.274;12.292;2023-04-21T12:17:17;17.70;99.90
1800;DHT22;919;48.274;12.292;2023-04-21T12:19:43;17.80;99.90
1800;DHT22;919;48.274;12.292;2023-04-21T12:22:11;17.80;99.90
1800;DHT22;919;48.274;12.292;2023-04-21T12:24:40;17.90;99.90
1800;DHT22;919;48.274;12.292;2023-04-21T12:27:07;18.00;99.90
1800;DHT22;919;48.274;12.292;2023-04-21T12:29:34;18.00;99.90
1800;DHT22;919;48.274;12.292;2023-04-21T12:32:02;18.00;99.90
1800;DHT22;919;48.274;12.292;2023-04-21T12:34:29;17.90;99.90
1800;DHT22;919;48.274;12.292;2023-04-21T12:36:56;17.80;99.90
1800;DHT22;919;48.274;12.292;2023-04-21T12:39:22;17.90;99.90
1800;DHT22;919;48.274;12.292;2023-04-21T12:41:50;17.90;99.90
1800;DHT22;919;48.274;12.292;2023-04-21T12:44:17;18.00;99.90
1800;DHT22;919;48.274;12.292;2023-04-21T12:46:44;17.90;99.90
1800;DHT22;919;48.274;12.292;2023-04-21T12:49:13;17.80;99.90
1800;DHT22;919;48.274;12.292;2023-04-21T12:51:41;17.70;99.90
1800;DHT22;919;48.274;12.292;2023-04-21T12:54:08;17.80;99.90
1800;DHT22;919;48.274;12.292;2023-04-21T12:56:35;18.00;99.90
1800;DHT22;919;48.274;12.292;2023-04-21T12:59:05;18.30;99.90
1800;DHT22;919;48.274;12.292;2023-04-21T13:01:32;18.60;99.90
1800;DHT22;919;48.274;12.292;2023-04-21T13:03:59;18.60;99.90
1800;DHT22;919;48.274;12.292;2023-04-21T13:06:26;18.70;99.90
1800;DHT22;919;48.274;12.292;2023-04-21T13:08:53;18.80;99.90
1800;DHT22;919;48.274;12.292;2023-04-21T13:11:20;18.90;99.90
1800;DHT22;919;48.274;12.292;2023-04-21T13:13:47;19.10;99.90
1800;DHT22;919;48.274;12.292;2023-04-21T13:16:15;19.20;99.90
1800;DHT22;919;48.274;12.292;2023-04-21T13:18:41;19.20;99.90
1800;DHT22;919;48.274;12.292;2023-04-21T13:21:08;19.40;99.90
1800;DHT22;919;48.274;12.292;2023-04-21T13:23:35;19.50;99.90
1800;DHT22;919;48.274;12.292;2023-04-21T13:26:03;19.70;99.90
1800;DHT22;919;48.274;12.292;2023-04-21T13:28:30;19.80;99.90
1800;DHT22;919;48.274;12.292;2023-04-21T13:30:56;19.90;99.90
1800;DHT22;919;48.274;12.292;2023-04-21T13:33:24;19.80;99.90
1800;DHT22;919;48.274;12.292;2023-04-21T13:35:51;19.40;99.90
1800;DHT22;919;48.274;12.292;2023-04-21T13:38:18;19.00;99.90
1800;DHT22;919;48.274;12.292;2023-04-21T13:40:45;18.90;99.90
1800;DHT22;919;48.274;12.292;2023-04-21T13:43:13;18.60;99.90
1800;DHT22;919;48.274;12.292;2023-04-21T13:45:40;18.20;99.90
1800;DHT22;919;48.274;12.292;2023-04-21T13:48:06;18.40;99.90
1800;DHT22;919;48.274;12.292;2023-04-21T13:50:34;18.70;99.90
1800;DHT22;919;48.274;12.292;2023-04-21T13:53:01;19.10;99.90
1800;DHT22;919;48.274;12.292;2023-04-21T13:55:28;19.20;99.90
1800;DHT22;919;48.274;12.292;2023-04-21T13:57:55;19.40;99.90
1800;DHT22;919;48.274;12.292;2023-04-21T14:00:21;19.50;99.90
1800;DHT22;919;48.274;12.292;2023-04-21T14:02:48;19.70;99.90
1800;DHT22;919;48.274;12.292;2023-04-21T14:05:15;19.70;99.90
1800;DHT22;919;48.274;12.292;2023-04-21T14:07:43;19.60;99.90
1800;DHT22;919;48.274;12.292;2023-04-21T14:10:10;19.60;99.90
1800;DHT22;919;48.274;12.292;2023-04-21T14:12:37;19.50;99.90
1800;DHT22;919;48.274;12.292;2023-04-21T14:15:05;19.40;99.90
1800;DHT22;919;48.274;12.292;2023-04-21T14:17:31;19.40;99.90
1800;DHT22;919;48.274;12.292;2023-04-21T14:19:59;19.40;99.90
1800;DHT22;919;48.274;12.292;2023-04-21T14:22:25;19.60;99.90
1800;DHT22;919;48.274;12.292;2023-04-21T14:24:54;19.80;99.90
1800;DHT22;919;48.274;12.292;2023-04-21T14:27:20;19.90;99.90
1800;DHT22;919;48.274;12.292;2023-04-21T14:29:47;19.90;99.90
1800;DHT22;919;48.274;12.292;2023-04-21T14:32:14;20.00;99.90
1800;DHT22;919;48.274;12.292;2023-04-21T14:34:41;20.00;99.90
1800;DHT22;919;48.274;12.292;2023-04-21T14:37:07;20.10;99.90
1800;DHT22;919;48.274;12.292;2023-04-21T14:39:34;20.20;99.90
1800;DHT22;919;48.274;12.292;2023-04-21T14:42:02;19.90;99.90
1800;DHT22;919;48.274;12.292;2023-04-21T14:44:29;20.00;99.90
1800;DHT22;919;48.274;12.292;2023-04-21T14:46:56;19.90;99.90
1800;DHT22;919;48.274;12.292;2023-04-21T14:49:22;20.00;99.90
1800;DHT22;919;48.274;12.292;2023-04-21T14:51:49;20.00;99.90
1800;DHT22;919;48.274;12.292;2023-04-21T14:54:17;20.00;99.90
1800;DHT22;919;48.274;12.292;2023-04-21T14:56:44;19.90;99.90
1800;DHT22;919;48.274;12.292;2023-04-21T14:59:14;19.90;99.90
1800;DHT22;919;48.274;12.292;2023-04-21T15:01:41;19.90;99.90
1800;DHT22;919;48.274;12.292;2023-04-21T15:04:07;20.00;99.90
1800;DHT22;919;48.274;12.292;2023-04-21T15:06:34;19.90;99.90
1800;DHT22;919;48.274;12.292;2023-04-21T15:09:01;19.60;99.90
1800;DHT22;919;48.274;12.292;2023-04-21T15:11:28;19.70;99.90
1800;DHT22;919;48.274;12.292;2023-04-21T15:13:55;19.70;99.90
1800;DHT22;919;48.274;12.292;2023-04-21T15:16:23;19.60;99.90
1800;DHT22;919;48.274;12.292;2023-04-21T15:18:50;19.60;99.90
1800;DHT22;919;48.274;12.292;2023-04-21T15:21:18;19.60;99.90
1800;DHT22;919;48.274;12.292;2023-04-21T15:23:45;19.50;99.90
1800;DHT22;919;48.274;12.292;2023-04-21T15:26:11;19.60;99.90
1800;DHT22;919;48.274;12.292;2023-04-21T15:28:38;19.60;99.90
1800;DHT22;919;48.274;12.292;2023-04-21T15:31:05;19.50;99.90
1800;DHT22;919;48.274;12.292;2023-04-21T15:33:33;19.40;99.90
1800;DHT22;919;48.274;12.292;2023-04-21T15:36:00;19.30;99.90
1800;DHT22;919;48.274;12.292;2023-04-21T15:38:27;19.20;99.90
1800;DHT22;919;48.274;12.292;2023-04-21T15:40:53;19.30;99.90
1800;DHT22;919;48.274;12.292;2023-04-21T15:43:20;19.40;99.90
1800;DHT22;919;48.274;12.292;2023-04-21T15:45:47;19.50;99.90
1800;DHT22;919;48.274;12.292;2023-04-21T15:48:14;19.40;99.90
1800;DHT22;919;48.274;12.292;2023-04-21T15:50:43;19.40;99.90
1800;DHT22;919;48.274;12.292;2023-04-21T15:53:10;19.40;99.90
1800;DHT22;919;48.274;12.292;2023-04-21T15:55:36;19.20;99.90
1800;DHT22;919;48.274;12.292;2023-04-21T15:58:04;19.20;99.90
1800;DHT22;919;48.274;12.292;2023-04-21T16:00:31;19.10;99.90
1800;DHT22;919;48.274;12.292;2023-04-21T16:02:59;19.10;99.90
1800;DHT22;919;48.274;12.292;2023-04-21T16:05:26;19.10;99.90
1800;DHT22;919;48.274;12.292;2023-04-21T16:07:54;19.10;99.90
1800;DHT22;919;48.274;12.292;2023-04-21T16:10:21;19.10;99.90
1800;DHT22;919;48.274;12.292;2023-04-21T16:12:47;19.10;99.90